sensor_id;sensor_type;location;lat;lon;timestamp;temperature;humidity
42031;DHT22;27709;52.036;5.906;2023-06-26T00:02:09;22.00;95.40
42031;DHT22;27709;52.036;5.906;2023-06-26T00:04:34;22.00;95.70
42031;DHT22;27709;52.036;5.906;2023-06-26T00:07:01;21.90;96.00
42031;DHT22;27709;52.036;5.906;2023-06-26T00:09:26;21.80;96.20
42031;DHT22;27709;52.036;5.906;2023-06-26T00:11:51;21.80;96.40
42031;DHT22;27709;52.036;5.906;2023-06-26T00:14:17;21.80;96.70
42031;DHT22;27709;52.036;5.906;2023-06-26T00:16:49;21.70;96.80
42031;DHT22;27709;52.036;5.906;2023-06-26T00:19:17;21.60;96.80
42031;DHT22;27709;52.036;5.906;2023-06-26T00:21:43;21.60;97.00
42031;DHT22;27709;52.036;5.906;2023-06-26T00:24:16;21.50;97.10
42031;DHT22;27709;52.036;5.906;2023-06-26T00:26:42;21.50;97.30
42031;DHT22;27709;52.036;5.906;2023-06-26T00:29:07;21.50;97.40
42031;DHT22;27709;52.036;5.906;2023-06-26T00:31:33;21.40;97.60
42031;DHT22;27709;52.036;5.906;2023-06-26T00:34:00;21.30;97.70
42031;DHT22;27709;52.036;5.906;2023-06-26T00:36:25;21.30;97.60
42031;DHT22;27709;52.036;5.906;2023-06-26T00:38:51;21.30;97.70
42031;DHT22;27709;52.036;5.906;2023-06-26T00:41:17;21.30;97.90
42031;DHT22;27709;52.036;5.906;2023-06-26T00:43:42;21.30;97.90
42031;DHT22;27709;52.036;5.906;2023-06-26T00:46:08;21.30;98.10
42031;DHT22;27709;52.036;5.906;2023-06-26T00:48:34;21.30;98.20
42031;DHT22;27709;52.036;5.906;2023-06-26T00:50:59;21.30;98.10
42031;DHT22;27709;52.036;5.906;2023-06-26T00:53:25;21.30;98.10
42031;DHT22;27709;52.036;5.906;2023-06-26T00:55:51;21.30;98.10
42031;DHT22;27709;52.036;5.906;2023-06-26T00:58:16;21.20;98.40
42031;DHT22;27709;52.036;5.906;2023-06-26T01:00:42;21.20;98.60
42031;DHT22;27709;52.036;5.906;2023-06-26T01:03:10;21.20;98.50
42031;DHT22;27709;52.036;5.906;2023-06-26T01:05:36;21.20;98.40
42031;DHT22;27709;52.036;5.906;2023-06-26T01:08:03;21.20;98.50
42031;DHT22;27709;52.036;5.906;2023-06-26T01:10:29;21.30;98.50
42031;DHT22;27709;52.036;5.906;2023-06-26T01:12:54;21.30;98.50
42031;DHT22;27709;52.036;5.906;2023-06-26T01:15:20;21.30;98.40
42031;DHT22;27709;52.036;5.906;2023-06-26T01:17:45;21.40;98.40
42031;DHT22;27709;52.036;5.906;2023-06-26T01:20:12;21.30;98.30
42031;DHT22;27709;52.036;5.906;2023-06-26T01:22:48;21.40;98.20
42031;DHT22;27709;52.036;5.906;2023-06-26T01:28:04;21.50;98.00
42031;DHT22;27709;52.036;5.906;2023-06-26T01:30:30;21.50;97.80
42031;DHT22;27709;52.036;5.906;2023-06-26T01:32:57;21.60;97.70
42031;DHT22;27709;52.036;5.906;2023-06-26T01:35:23;21.60;97.60
42031;DHT22;27709;52.036;5.906;2023-06-26T01:37:48;21.60;97.50
42031;DHT22;27709;52.036;5.906;2023-06-26T01:40:14;21.70;97.40
42031;DHT22;27709;52.036;5.906;2023-06-26T01:42:39;21.70;97.30
42031;DHT22;27709;52.036;5.906;2023-06-26T01:45:07;21.60;97.30
42031;DHT22;27709;52.036;5.906;2023-06-26T01:47:35;21.70;97.30
42031;DHT22;27709;52.036;5.906;2023-06-26T01:50:05;21.60;97.40
42031;DHT22;27709;52.036;5.906;2023-06-26T01:52:41;21.60;97.40
42031;DHT22;27709;52.036;5.906;2023-06-26T01:57:45;21.60;97.50
42031;DHT22;27709;52.036;5.906;2023-06-26T02:00:13;21.60;97.40
42031;DHT22;27709;52.036;5.906;2023-06-26T02:02:42;21.60;97.50
42031;DHT22;27709;52.036;5.906;2023-06-26T02:05:12;21.60;97.60
42031;DHT22;27709;52.036;5.906;2023-06-26T02:07:38;21.60;97.50
42031;DHT22;27709;52.036;5.906;2023-06-26T02:10:04;21.60;97.50
42031;DHT22;27709;52.036;5.906;2023-06-26T02:12:29;21.60;97.50
42031;DHT22;27709;52.036;5.906;2023-06-26T02:14:56;21.60;97.50
42031;DHT22;27709;52.036;5.906;2023-06-26T02:17:21;21.70;97.40
42031;DHT22;27709;52.036;5.906;2023-06-26T02:19:47;21.70;97.30
42031;DHT22;27709;52.036;5.906;2023-06-26T02:22:15;21.70;97.30
42031;DHT22;27709;52.036;5.906;2023-06-26T02:24:41;21.70;97.20
42031;DHT22;27709;52.036;5.906;2023-06-26T02:27:06;21.70;97.10
42031;DHT22;27709;52.036;5.906;2023-06-26T02:29:32;21.70;97.00
42031;DHT22;27709;52.036;5.906;2023-06-26T02:31:57;21.70;97.00
42031;DHT22;27709;52.036;5.906;2023-06-26T02:34:22;21.60;97.00
42031;DHT22;27709;52.036;5.906;2023-06-26T02:36:48;21.60;97.10
42031;DHT22;27709;52.036;5.906;2023-06-26T02:39:13;21.50;97.10
42031;DHT22;27709;52.036;5.906;2023-06-26T02:41:39;21.50;97.10
42031;DHT22;27709;52.036;5.906;2023-06-26T02:44:05;21.50;97.00
42031;DHT22;27709;52.036;5.906;2023-06-26T02:46:32;21.40;97.00
42031;DHT22;27709;52.036;5.906;2023-06-26T02:48:58;21.40;97.10
42031;DHT22;27709;52.036;5.906;2023-06-26T02:51:24;21.40;97.20
42031;DHT22;27709;52.036;5.906;2023-06-26T02:53:49;21.30;97.10
42031;DHT22;27709;52.036;5.906;2023-06-26T02:56:15;21.30;97.10
42031;DHT22;27709;52.036;5.906;2023-06-26T02:58:40;21.30;97.20
42031;DHT22;27709;52.036;5.906;2023-06-26T03:01:06;21.20;97.20
42031;DHT22;27709;52.036;5.906;2023-06-26T03:03:31;21.20;97.60
42031;DHT22;27709;52.036;5.906;2023-06-26T03:06:05;21.20;97.30
42031;DHT22;27709;52.036;5.906;2023-06-26T03:08:31;21.10;97.40
42031;DHT22;27709;52.036;5.906;2023-06-26T03:10:57;21.10;97.80
42031;DHT22;27709;52.036;5.906;2023-06-26T03:13:22;21.00;97.80
42031;DHT22;27709;52.036;5.906;2023-06-26T03:15:48;21.00;97.90
42031;DHT22;27709;52.036;5.906;2023-06-26T03:18:13;20.90;98.00
42031;DHT22;27709;52.036;5.906;2023-06-26T03:20:39;20.90;98.10
42031;DHT22;27709;52.036;5.906;2023-06-26T03:23:04;20.90;98.10
42031;DHT22;27709;52.036;5.906;2023-06-26T03:25:30;20.90;98.00
42031;DHT22;27709;52.036;5.906;2023-06-26T03:27:56;20.80;97.90
42031;DHT22;27709;52.036;5.906;2023-06-26T03:30:21;20.90;98.20
42031;DHT22;27709;52.036;5.906;2023-06-26T03:32:47;20.90;98.20
42031;DHT22;27709;52.036;5.906;2023-06-26T03:35:12;20.90;98.20
42031;DHT22;27709;52.036;5.906;2023-06-26T03:37:38;20.80;98.50
42031;DHT22;27709;52.036;5.906;2023-06-26T03:40:03;20.90;98.60
42031;DHT22;27709;52.036;5.906;2023-06-26T03:42:31;20.80;98.90
42031;DHT22;27709;52.036;5.906;2023-06-26T03:44:56;20.80;98.80
42031;DHT22;27709;52.036;5.906;2023-06-26T03:47:22;20.80;98.80
42031;DHT22;27709;52.036;5.906;2023-06-26T03:49:47;20.70;98.90
42031;DHT22;27709;52.036;5.906;2023-06-26T03:52:13;20.70;99.20
42031;DHT22;27709;52.036;5.906;2023-06-26T03:54:38;20.60;99.50
42031;DHT22;27709;52.036;5.906;2023-06-26T03:57:04;20.60;99.50
42031;DHT22;27709;52.036;5.906;2023-06-26T03:59:29;20.60;99.90
